Аэропорт: Запорожье. Запорожье

ICAO: UKDE

METAR:
2018/07/22 20:00
UKDE 222000Z 34002MPS CAVOK 22/17 Q1005 R20L/CLRD70 NOSIG
METAR:
2018/07/21 03:48
TAF 
      AMD TAF 
      AMD UKDE 210346Z 2103/2115 24003MPS 9999 SCT033CB TX28/2112Z TN20/2103Z 
      TEMPO 2103/2105 VRB01MPS 
      TEMPO 2108/2112 -SHRA BKN020CB